Terminal Aerodrome Forecast
Issued by NWS Upton, NY

Home | Current Version | Previous Version | Text Only | Print | Product List | Glossary On
Versions: 1 2 3 4 5 6 7 8 9 10 11 12 13 14 15 16 17 18 19 20 21 22 23 24 25 26 27
000
FTUS41 KOKX 010700 AAA
TAFJFK
TAF AMD
KJFK 010733Z 0108/0212 27015KT P6SM SCT035 BKN250
     FM011500 25010KT P6SM FEW060 BKN120
     FM012000 22007KT P6SM FEW030 OVC060
     FM020200 12006KT 2SM -SN OVC010
     FM020400 09013KT 1 1/2SM -SN BR OVC008
     FM020900 07016KT 2SM -FZRASNPL BR OVC008=

USA.gov is the U.S. government's official web portal to all federal, state and local government web resources and services.